Time;durP1;ratioP1;P1;durP2;ratioP2;P2;SDS_P1;SDS_P2;PMS_P1;PMS_P2;Temp;Humidity;BMP_temperature;BMP_pressure;BME280_temperature;BME280_humidity;BME280_pressure;Samples;Min_cycle;Max_cycle;Signal;HPM_P1;HPM_P2
2022/06/07 05:39:06;;;;;;;5.70;4.20;;;;;;;;;;5531483;23;20055;-77
2022/06/07 05:41:33;;;;;;;10.32;4.80;;;;;;;;;;4897491;29;20029;-78
2022/06/07 05:43:59;;;;;;;4.72;3.70;;;;;;;;;;4911358;29;20020;-78
2022/06/07 05:46:25;;;;;;;4.57;4.05;;;;;;;;;;4896412;29;20020;-78
2022/06/07 05:48:52;;;;;;;6.53;4.22;;;;;;;;;;4900921;29;20105;-78
2022/06/07 05:51:19;;;;;;;5.95;4.10;;;;;;;;;;4900102;29;20021;-76
2022/06/07 05:53:45;;;;;;;8.48;4.25;;;;;;;;;;4900368;29;20036;-78
2022/06/07 05:56:13;;;;;;;6.50;4.30;;;;;;;;;;4899813;29;20511;-79
2022/06/07 05:58:39;;;;;;;7.70;3.90;;;;;;;;;;4896663;29;20025;-79
2022/06/07 06:01:07;;;;;;;4.80;4.00;;;;;;;;;;4899569;29;20142;-79
2022/06/07 06:03:35;;;;;;;12.07;4.00;;;;;;;;;;4900346;29;20412;-79
2022/06/07 06:06:01;;;;;;;4.20;3.80;;;;;;;;;;4899971;29;20473;-79
2022/06/07 06:11:15;;;;;;;5.03;4.00;;;;;;;;;;4899767;29;20042;-78
2022/06/07 06:13:42;;;;;;;7.25;3.85;;;;;;;;;;4895013;29;20556;-78
2022/06/07 06:16:10;;;;;;;6.88;3.85;;;;;;;;;;4898714;29;20516;-78
2022/06/07 06:18:39;;;;;;;7.10;4.40;;;;;;;;;;4907250;29;20050;-78
2022/06/07 06:21:06;;;;;;;5.50;4.10;;;;;;;;;;4894449;29;20028;-72
2022/06/07 06:23:33;;;;;;;5.65;3.92;;;;;;;;;;4898677;29;20474;-72
2022/06/07 06:25:59;;;;;;;9.07;4.40;;;;;;;;;;4896757;29;20097;-72
2022/06/07 06:28:26;;;;;;;7.88;3.70;;;;;;;;;;4891296;29;20037;-72
2022/06/07 06:30:52;;;;;;;21.42;4.13;;;;;;;;;;4896013;29;20390;-73
2022/06/07 06:33:19;;;;;;;5.88;3.85;;;;;;;;;;4898100;29;20041;-72
2022/06/07 06:35:49;;;;;;;6.25;3.88;;;;;;;;;;4918006;29;20040;-72
2022/06/07 06:38:16;;;;;;;7.30;4.10;;;;;;;;;;4902936;29;20036;-72
2022/06/07 06:40:43;;;;;;;8.73;3.47;;;;;;;;;;4895378;29;20304;-72
2022/06/07 06:43:10;;;;;;;25.08;4.25;;;;;;;;;;4891003;29;20504;-72
2022/06/07 06:45:36;;;;;;;6.93;3.65;;;;;;;;;;4895898;29;20064;-72
2022/06/07 06:48:03;;;;;;;6.15;3.83;;;;;;;;;;4900531;29;20024;-72
2022/06/07 06:50:30;;;;;;;5.85;3.67;;;;;;;;;;4895639;29;20035;-72
2022/06/07 06:52:57;;;;;;;5.95;3.63;;;;;;;;;;4896619;29;20032;-72
2022/06/07 06:55:23;;;;;;;9.00;3.65;;;;;;;;;;4897534;29;20028;-73
2022/06/07 06:57:49;;;;;;;7.22;3.22;;;;;;;;;;4898177;29;20041;-72
2022/06/07 07:00:16;;;;;;;5.82;3.30;;;;;;;;;;4896836;29;20025;-72
2022/06/07 07:02:42;;;;;;;10.25;3.03;;;;;;;;;;4896025;29;20043;-72
2022/06/07 07:05:11;;;;;;;6.50;3.55;;;;;;;;;;4901748;29;20024;-72
2022/06/07 07:07:38;;;;;;;4.15;3.00;;;;;;;;;;4897004;29;20029;-72
2022/06/07 07:10:05;;;;;;;7.20;2.00;;;;;;;;;;4899414;29;20033;-73
2022/06/07 07:12:32;;;;;;;6.45;1.85;;;;;;;;;;4901170;29;20040;-72
2022/06/07 07:14:58;;;;;;;4.82;1.73;;;;;;;;;;4901982;29;20032;-72
2022/06/07 07:17:25;;;;;;;5.07;1.42;;;;;;;;;;4900562;29;20233;-72
2022/06/07 07:19:51;;;;;;;2.40;1.58;;;;;;;;;;4895709;29;20033;-72
2022/06/07 07:22:18;;;;;;;3.97;1.40;;;;;;;;;;4910342;29;20136;-72
2022/06/07 07:24:44;;;;;;;3.85;1.30;;;;;;;;;;4894276;29;20532;-72
2022/06/07 07:27:11;;;;;;;18.90;2.55;;;;;;;;;;4898777;29;20100;-72
2022/06/07 07:29:38;;;;;;;31.90;3.30;;;;;;;;;;4904645;29;20508;-73
2022/06/07 07:32:05;;;;;;;2.40;1.40;;;;;;;;;;4911493;29;20032;-72
2022/06/07 07:34:31;;;;;;;2.50;1.40;;;;;;;;;;4896608;29;20043;-72
2022/06/07 07:36:58;;;;;;;3.75;1.10;;;;;;;;;;4893972;29;20088;-72
2022/06/07 07:39:24;;;;;;;2.70;1.23;;;;;;;;;;4899898;29;20045;-72
2022/06/07 07:41:51;;;;;;;3.58;1.38;;;;;;;;;;4901975;29;20038;-73
2022/06/07 07:44:18;;;;;;;2.83;1.40;;;;;;;;;;4909790;29;20036;-72
2022/06/07 07:46:47;;;;;;;1.80;1.23;;;;;;;;;;4896083;29;20028;-72
2022/06/07 07:49:15;;;;;;;5.30;1.40;;;;;;;;;;4899054;29;20025;-72
2022/06/07 07:51:42;;;;;;;3.65;1.35;;;;;;;;;;4900884;29;20042;-72
2022/06/07 07:54:10;;;;;;;4.57;1.60;;;;;;;;;;4899299;29;20405;-72
2022/06/07 07:56:37;;;;;;;1.70;1.10;;;;;;;;;;4899126;29;20501;-72
2022/06/07 07:59:05;;;;;;;3.58;1.50;;;;;;;;;;4900011;29;20035;-72
2022/06/07 08:01:31;;;;;;;2.05;1.10;;;;;;;;;;4896395;29;20033;-72
2022/06/07 08:03:59;;;;;;;6.28;1.30;;;;;;;;;;4905099;29;20029;-73
2022/06/07 08:06:27;;;;;;;5.97;1.38;;;;;;;;;;4902926;29;20024;-72
2022/06/07 08:08:54;;;;;;;4.05;1.27;;;;;;;;;;4900461;29;20036;-72
2022/06/07 08:11:21;;;;;;;2.00;1.35;;;;;;;;;;4894463;29;20087;-72
2022/06/07 08:13:48;;;;;;;2.88;1.40;;;;;;;;;;4896985;29;20037;-72
2022/06/07 08:16:14;;;;;;;3.33;1.40;;;;;;;;;;4898232;29;20110;-73
2022/06/07 08:18:41;;;;;;;4.53;1.33;;;;;;;;;;4900442;29;20404;-73
2022/06/07 08:21:09;;;;;;;6.40;1.80;;;;;;;;;;4899809;29;20032;-71
2022/06/07 08:23:36;;;;;;;3.42;1.63;;;;;;;;;;4899913;29;20041;-72
2022/06/07 08:26:04;;;;;;;8.60;1.70;;;;;;;;;;4893958;29;20042;-72
2022/06/07 08:28:31;;;;;;;11.95;1.45;;;;;;;;;;4892642;29;20059;-72
2022/06/07 08:30:59;;;;;;;2.22;1.20;;;;;;;;;;4900455;29;20438;-72
2022/06/07 08:38:57;;;;;;;7.15;1.25;;;;;;;;;;4898996;29;20055;-72
2022/06/07 08:41:26;;;;;;;8.60;1.60;;;;;;;;;;4898273;29;20034;-72
2022/06/07 08:43:56;;;;;;;8.50;1.35;;;;;;;;;;4895066;29;20036;-79
2022/06/07 08:46:26;;;;;;;10.10;1.50;;;;;;;;;;4897167;29;20032;-79
2022/06/07 08:48:53;;;;;;;3.17;1.20;;;;;;;;;;4913730;29;20095;-79
2022/06/07 08:51:22;;;;;;;3.22;1.15;;;;;;;;;;4898968;29;20409;-79
2022/06/07 08:53:54;;;;;;;5.15;1.33;;;;;;;;;;4897869;29;20375;-79
2022/06/07 08:56:28;;;;;;;4.57;1.50;;;;;;;;;;4899498;29;20034;-79
2022/06/07 08:58:57;;;;;;;3.42;1.20;;;;;;;;;;4896951;29;21823;-79
2022/06/07 09:01:28;;;;;;;4.88;1.55;;;;;;;;;;4896315;29;20137;-79
2022/06/07 09:04:15;;;;;;;2.42;1.17;;;;;;;;;;4896570;29;20489;-79
2022/06/07 09:06:49;;;;;;;2.65;1.02;;;;;;;;;;4893705;29;20400;-78
2022/06/07 09:09:16;;;;;;;28.23;1.92;;;;;;;;;;4900337;29;20572;-80
2022/06/07 09:14:47;;;;;;;2.67;1.05;;;;;;;;;;4899158;29;20038;-80
2022/06/07 09:17:16;;;;;;;2.75;1.45;;;;;;;;;;4906409;29;20046;-79
2022/06/07 09:19:43;;;;;;;6.13;1.33;;;;;;;;;;4895130;29;20035;-79
2022/06/07 09:22:15;;;;;;;4.03;1.30;;;;;;;;;;4897449;29;20437;-79
2022/06/07 09:24:49;;;;;;;3.97;1.23;;;;;;;;;;4896763;29;20036;-79
2022/06/07 09:27:17;;;;;;;22.73;2.97;;;;;;;;;;4901711;29;20083;-80
2022/06/07 09:29:49;;;;;;;6.18;1.40;;;;;;;;;;4899356;29;20028;-80
2022/06/07 09:32:17;;;;;;;4.28;1.40;;;;;;;;;;4905483;29;20493;-79
2022/06/07 09:34:52;;;;;;;4.38;1.42;;;;;;;;;;4898288;29;20041;-79
2022/06/07 09:37:20;;;;;;;3.53;1.30;;;;;;;;;;4899622;29;20043;-80
2022/06/07 09:39:56;;;;;;;1.65;1.10;;;;;;;;;;4896842;29;20060;-79
2022/06/07 09:42:22;;;;;;;5.03;1.40;;;;;;;;;;4891115;29;20096;-79
2022/06/07 09:44:58;;;;;;;3.50;1.40;;;;;;;;;;4913393;29;20036;-79
2022/06/07 09:47:25;;;;;;;2.92;1.20;;;;;;;;;;4895732;29;20036;-79
2022/06/07 09:50:11;;;;;;;2.15;1.25;;;;;;;;;;4908348;29;20041;-79
2022/06/07 09:52:43;;;;;;;2.47;1.45;;;;;;;;;;4880604;29;20037;-78
2022/06/07 09:55:13;;;;;;;1.50;0.90;;;;;;;;;;4892675;29;20520;-79
2022/06/07 09:57:43;;;;;;;5.50;1.15;;;;;;;;;;4902683;29;20064;-79
2022/06/07 10:00:24;;;;;;;16.95;2.28;;;;;;;;;;4892774;29;20033;-79
2022/06/07 10:03:00;;;;;;;33.95;2.70;;;;;;;;;;4891663;29;20513;-79
2022/06/07 10:05:33;;;;;;;4.55;1.20;;;;;;;;;;4898985;29;20444;-79
2022/06/07 10:08:08;;;;;;;17.15;2.58;;;;;;;;;;4899383;29;20392;-80
2022/06/07 10:10:44;;;;;;;2.22;0.95;;;;;;;;;;4889334;29;20032;-79
2022/06/07 10:13:20;;;;;;;7.97;1.20;;;;;;;;;;4906865;29;20408;-79
2022/06/07 10:15:53;;;;;;;2.15;1.10;;;;;;;;;;4898828;29;20033;-80
2022/06/07 10:18:38;;;;;;;4.15;0.90;;;;;;;;;;4900415;29;20043;-79
2022/06/07 10:21:10;;;;;;;6.65;1.48;;;;;;;;;;4902230;29;20024;-79
2022/06/07 10:23:55;;;;;;;18.38;1.85;;;;;;;;;;4902356;29;20039;-79
2022/06/07 10:26:30;;;;;;;4.97;1.23;;;;;;;;;;4901860;29;20389;-79
2022/06/07 10:28:57;;;;;;;2.58;1.00;;;;;;;;;;4900250;29;20758;-79
2022/06/07 10:31:39;;;;;;;11.65;1.10;;;;;;;;;;4897210;29;20036;-80
2022/06/07 10:34:13;;;;;;;12.10;1.30;;;;;;;;;;4909619;29;20032;-80
2022/06/07 10:36:42;;;;;;;3.25;1.10;;;;;;;;;;4901848;29;20442;-79
2022/06/07 10:39:20;;;;;;;6.20;1.30;;;;;;;;;;4901987;29;20311;-80
2022/06/07 10:42:06;;;;;;;7.18;1.10;;;;;;;;;;4901730;29;20044;-79
2022/06/07 10:44:45;;;;;;;3.97;1.20;;;;;;;;;;4824211;29;20419;-87
2022/06/07 10:47:13;;;;;;;2.75;0.90;;;;;;;;;;4839750;29;20034;-80
2022/06/07 10:49:48;;;;;;;2.50;0.80;;;;;;;;;;4839772;29;20050;-81
2022/06/07 10:52:33;;;;;;;5.70;1.20;;;;;;;;;;4839800;29;20049;-83
2022/06/07 10:55:06;;;;;;;2.33;1.00;;;;;;;;;;4840116;29;20053;-86
2022/06/07 10:57:54;;;;;;;8.07;2.33;;;;;;;;;;4839700;29;20066;-79
2022/06/07 11:00:29;;;;;;;2.20;0.88;;;;;;;;;;4831475;29;20038;-80
2022/06/07 11:03:00;;;;;;;2.40;0.90;;;;;;;;;;4839474;29;20045;-76
2022/06/07 11:11:06;;;;;;;6.43;1.23;;;;;;;;;;4840466;29;20054;-82
2022/06/07 11:13:44;;;;;;;5.05;0.95;;;;;;;;;;4825656;29;20407;-75
2022/06/07 11:16:16;;;;;;;2.67;1.10;;;;;;;;;;4836219;29;20626;-75
2022/06/07 11:18:42;;;;;;;2.13;1.00;;;;;;;;;;4840171;29;20052;-79
2022/06/07 11:21:09;;;;;;;2.67;1.00;;;;;;;;;;4851857;29;20037;-83
2022/06/07 11:23:48;;;;;;;5.65;1.00;;;;;;;;;;4894010;29;20509;-80
2022/06/07 11:26:17;;;;;;;5.20;1.20;;;;;;;;;;4895527;29;20033;-80
2022/06/07 11:28:45;;;;;;;3.03;1.00;;;;;;;;;;4897774;29;20031;-80
2022/06/07 11:31:32;;;;;;;1.40;0.82;;;;;;;;;;4900188;29;20035;-80
2022/06/07 11:34:02;;;;;;;5.47;1.35;;;;;;;;;;4885864;29;20401;-80
2022/06/07 11:36:31;;;;;;;6.53;1.43;;;;;;;;;;4888858;29;20092;-79
2022/06/07 11:39:23;;;;;;;4.50;1.20;;;;;;;;;;4899984;29;20067;-79
2022/06/07 11:41:54;;;;;;;4.18;1.17;;;;;;;;;;4900275;29;20040;-79
2022/06/07 11:44:20;;;;;;;;;;;;;;;;;;4899314;29;20034;-80
2022/06/07 11:46:46;;;;;;;10.63;3.20;;;;;;;;;;4894442;29;19935;-80
2022/06/07 11:49:24;;;;;;;2.78;1.10;;;;;;;;;;4907755;29;20351;-79
2022/06/07 11:52:10;;;;;;;5.78;1.00;;;;;;;;;;4894560;29;20036;-79
2022/06/07 11:54:38;;;;;;;2.97;1.00;;;;;;;;;;4893926;29;20363;-79
2022/06/07 11:57:20;;;;;;;5.70;0.90;;;;;;;;;;4900833;29;20032;-79
2022/06/07 11:59:48;;;;;;;2.35;1.05;;;;;;;;;;4900450;29;20024;-80
2022/06/07 12:02:14;;;;;;;1.95;0.93;;;;;;;;;;4897181;29;20034;-80
2022/06/07 12:04:43;;;;;;;2.25;1.00;;;;;;;;;;4896914;29;20373;-79
2022/06/07 12:07:10;;;;;;;3.03;1.07;;;;;;;;;;4894405;29;20062;-79
2022/06/07 12:09:37;;;;;;;2.67;0.90;;;;;;;;;;4896924;29;20402;-79
2022/06/07 12:12:21;;;;;;;2.65;1.00;;;;;;;;;;4896833;29;20040;-80
2022/06/07 12:14:49;;;;;;;2.45;1.00;;;;;;;;;;4891304;29;20025;-80
2022/06/07 12:17:21;;;;;;;3.00;0.90;;;;;;;;;;4894218;29;20035;-79
2022/06/07 12:19:47;;;;;;;3.58;1.05;;;;;;;;;;4895512;29;20498;-79
2022/06/07 12:22:16;;;;;;;1.88;0.93;;;;;;;;;;4897842;29;20040;-81
2022/06/07 12:24:59;;;;;;;3.13;1.10;;;;;;;;;;4899263;29;20032;-79
2022/06/07 12:27:25;;;;;;;2.80;0.90;;;;;;;;;;4898542;29;20041;-79
2022/06/07 12:29:54;;;;;;;5.82;0.80;;;;;;;;;;4900061;29;20028;-80
2022/06/07 12:32:21;;;;;;;2.42;1.10;;;;;;;;;;4903834;29;20092;-79
2022/06/07 12:34:48;;;;;;;2.58;1.00;;;;;;;;;;4896258;29;20021;-79
2022/06/07 12:37:25;;;;;;;4.07;0.98;;;;;;;;;;4897053;29;20129;-79
2022/06/07 12:39:53;;;;;;;1.13;0.80;;;;;;;;;;4896523;29;20215;-79
2022/06/07 12:42:20;;;;;;;1.17;0.80;;;;;;;;;;4912087;29;20107;-79
2022/06/07 12:44:51;;;;;;;2.92;0.80;;;;;;;;;;4898672;29;20032;-78
2022/06/07 12:47:25;;;;;;;1.55;0.73;;;;;;;;;;4899708;29;20021;-78
2022/06/07 12:49:51;;;;;;;1.85;0.80;;;;;;;;;;4893587;29;20036;-79
2022/06/07 12:52:20;;;;;;;4.00;1.10;;;;;;;;;;4894474;29;20527;-79
2022/06/07 12:54:48;;;;;;;2.60;0.80;;;;;;;;;;4899293;29;20035;-78
2022/06/07 12:57:16;;;;;;;3.72;0.90;;;;;;;;;;4905750;29;20044;-79
2022/06/07 12:59:51;;;;;;;1.52;0.80;;;;;;;;;;4905342;29;20545;-79
2022/06/07 13:02:20;;;;;;;6.45;0.93;;;;;;;;;;4898188;29;20020;-79
2022/06/07 13:04:49;;;;;;;8.05;1.10;;;;;;;;;;4896330;29;20028;-79
2022/06/07 13:07:16;;;;;;;1.85;1.13;;;;;;;;;;4897785;29;20032;-79
2022/06/07 13:09:44;;;;;;;3.13;0.93;;;;;;;;;;4902297;29;20032;-78
2022/06/07 13:12:16;;;;;;;1.52;0.88;;;;;;;;;;4896892;29;20493;-79
2022/06/07 13:14:42;;;;;;;4.05;1.00;;;;;;;;;;4898300;29;20505;-78
2022/06/07 13:17:23;;;;;;;2.53;0.82;;;;;;;;;;4898806;29;20035;-79
2022/06/07 13:19:51;;;;;;;4.43;0.60;;;;;;;;;;4895309;29;20059;-79
2022/06/07 13:22:17;;;;;;;4.32;0.80;;;;;;;;;;4894588;29;20039;-79
2022/06/07 13:24:46;;;;;;;7.78;1.10;;;;;;;;;;4899017;29;20092;-80
2022/06/07 13:27:31;;;;;;;3.67;0.90;;;;;;;;;;4898780;29;20127;-80
2022/06/07 13:30:00;;;;;;;2.78;0.70;;;;;;;;;;4892437;29;20584;-80
2022/06/07 13:32:27;;;;;;;1.20;0.70;;;;;;;;;;4898001;29;20485;-79
2022/06/07 13:34:58;;;;;;;2.58;0.80;;;;;;;;;;4897107;29;20037;-78
2022/06/07 13:37:25;;;;;;;4.88;1.17;;;;;;;;;;4893966;29;20051;-79
2022/06/07 13:40:01;;;;;;;1.88;0.90;;;;;;;;;;4899734;29;20041;-79
2022/06/07 13:42:34;;;;;;;3.20;1.00;;;;;;;;;;4900583;29;20047;-79
2022/06/07 13:45:12;;;;;;;3.53;0.98;;;;;;;;;;4898720;29;20028;-79
2022/06/07 13:47:41;;;;;;;4.35;0.90;;;;;;;;;;4902676;29;20040;-79
2022/06/07 13:53:25;;;;;;;1.95;0.77;;;;;;;;;;4889789;29;20457;-78
2022/06/07 13:55:58;;;;;;;3.13;0.98;;;;;;;;;;4898156;29;20039;-78
2022/06/07 13:58:29;;;;;;;3.45;0.90;;;;;;;;;;4896637;29;20115;-77
2022/06/07 14:00:58;;;;;;;3.28;1.20;;;;;;;;;;4911057;29;20029;-79
2022/06/07 14:03:33;;;;;;;4.28;0.80;;;;;;;;;;4901331;29;20409;-78
2022/06/07 14:06:00;;;;;;;4.00;0.98;;;;;;;;;;4898199;29;20032;-79
2022/06/07 14:08:26;;;;;;;7.63;0.90;;;;;;;;;;4898056;29;20032;-79
2022/06/07 14:10:52;;;;;;;4.00;0.90;;;;;;;;;;4893595;29;20572;-80
2022/06/07 14:13:19;;;;;;;4.88;1.17;;;;;;;;;;4897674;29;20028;-79
2022/06/07 14:15:47;;;;;;;2.40;0.88;;;;;;;;;;4900114;29;20037;-79
2022/06/07 14:18:14;;;;;;;1.23;0.90;;;;;;;;;;4898531;29;20484;-79
2022/06/07 14:20:41;;;;;;;2.85;1.25;;;;;;;;;;4895612;29;20090;-79
2022/06/07 14:23:14;;;;;;;2.17;0.80;;;;;;;;;;4894481;29;20032;-77
2022/06/07 14:25:40;;;;;;;3.40;0.80;;;;;;;;;;4890329;29;20039;-79
2022/06/07 14:28:13;;;;;;;2.38;0.80;;;;;;;;;;4896803;29;20029;-79
2022/06/07 14:30:40;;;;;;;1.80;0.75;;;;;;;;;;4892393;29;20048;-79
2022/06/07 14:33:08;;;;;;;4.20;0.90;;;;;;;;;;4904416;29;20028;-78
2022/06/07 14:35:35;;;;;;;4.70;1.17;;;;;;;;;;4903547;29;20104;-79
2022/06/07 14:38:02;;;;;;;1.45;0.70;;;;;;;;;;4897988;29;20043;-79
2022/06/07 14:40:34;;;;;;;3.90;0.95;;;;;;;;;;4897724;29;20539;-78
2022/06/07 14:43:00;;;;;;;3.88;0.90;;;;;;;;;;4900949;29;20033;-79
2022/06/07 14:45:31;;;;;;;3.60;0.80;;;;;;;;;;4902363;29;20045;-79
2022/06/07 14:47:57;;;;;;;;;;;;;;;;;;4896689;29;20040;-79
2022/06/07 14:50:24;;;;;;;3.70;0.70;;;;;;;;;;4900543;29;19915;-78
2022/06/07 14:52:51;;;;;;;1.35;0.75;;;;;;;;;;4897256;29;20044;-78
2022/06/07 14:55:19;;;;;;;3.00;1.00;;;;;;;;;;4896398;29;20573;-77
2022/06/07 14:57:47;;;;;;;2.33;0.80;;;;;;;;;;4915917;29;20047;-78
2022/06/07 15:00:15;;;;;;;2.80;0.85;;;;;;;;;;4900653;29;20470;-78
2022/06/07 15:02:42;;;;;;;3.20;0.88;;;;;;;;;;4900162;29;20021;-77
2022/06/07 15:05:09;;;;;;;3.70;1.10;;;;;;;;;;4900861;29;20040;-77
2022/06/07 15:07:50;;;;;;;6.22;1.20;;;;;;;;;;4895407;29;20024;-80
2022/06/07 15:10:18;;;;;;;4.50;1.40;;;;;;;;;;4911438;29;20043;-79
2022/06/07 15:12:44;;;;;;;3.20;1.23;;;;;;;;;;4902299;29;20032;-77
2022/06/07 15:15:11;;;;;;;4.70;1.10;;;;;;;;;;4899221;29;20489;-80
2022/06/07 15:17:42;;;;;;;2.92;1.08;;;;;;;;;;4894538;29;20047;-79
2022/06/07 15:20:17;;;;;;;4.32;1.75;;;;;;;;;;4902155;29;20020;-79
2022/06/07 15:22:44;;;;;;;4.07;1.08;;;;;;;;;;4896151;29;20028;-79
2022/06/07 15:25:15;;;;;;;7.53;1.38;;;;;;;;;;4901047;29;20378;-78
2022/06/07 15:27:41;;;;;;;3.75;1.58;;;;;;;;;;4901175;29;20052;-79
2022/06/07 15:30:08;;;;;;;7.13;1.20;;;;;;;;;;4905253;29;20058;-79
2022/06/07 15:32:35;;;;;;;7.43;1.30;;;;;;;;;;4905668;29;20051;-80
2022/06/07 15:35:02;;;;;;;6.68;1.40;;;;;;;;;;4900500;29;20050;-80
2022/06/07 15:37:30;;;;;;;3.67;1.50;;;;;;;;;;4895983;29;20035;-79
2022/06/07 15:39:57;;;;;;;3.85;0.90;;;;;;;;;;4902182;29;20047;-79
2022/06/07 15:45:10;;;;;;;2.65;0.80;;;;;;;;;;4898480;29;20037;-78
2022/06/07 15:47:36;;;;;;;8.00;1.30;;;;;;;;;;4901499;29;20039;-79
2022/06/07 15:50:04;;;;;;;4.45;1.02;;;;;;;;;;4900645;29;20067;-79
2022/06/07 15:52:30;;;;;;;3.45;0.80;;;;;;;;;;4897928;29;20553;-79
2022/06/07 15:54:58;;;;;;;5.25;1.10;;;;;;;;;;4902074;29;20032;-79
2022/06/07 15:59:02;;;;;;;2.47;0.90;;;;;;;;;;4896025;29;20239;-79
2022/06/07 16:00:11;;;;;;;6.22;0.70;;;;;;;;;;4900954;29;20420;-79
2022/06/07 16:02:37;;;;;;;4.03;1.00;;;;;;;;;;4900573;29;20023;-79
2022/06/07 16:05:04;;;;;;;1.63;0.80;;;;;;;;;;4900216;29;20043;-79
2022/06/07 16:07:30;;;;;;;3.38;0.70;;;;;;;;;;4897780;29;20036;-80
2022/06/07 16:09:56;;;;;;;2.15;0.75;;;;;;;;;;4901968;29;20402;-78
2022/06/07 16:12:22;;;;;;;3.30;0.88;;;;;;;;;;4901183;29;20020;-79
2022/06/07 16:14:49;;;;;;;2.50;0.80;;;;;;;;;;4901212;29;20036;-79
2022/06/07 16:17:15;;;;;;;8.40;0.95;;;;;;;;;;4901108;29;20472;-79
2022/06/07 16:19:41;;;;;;;7.25;1.13;;;;;;;;;;4897136;29;20038;-79
2022/06/07 16:22:08;;;;;;;1.13;0.68;;;;;;;;;;4900932;29;20039;-78
2022/06/07 16:24:36;;;;;;;2.90;0.73;;;;;;;;;;4915653;29;20055;-78
2022/06/07 16:27:03;;;;;;;2.70;0.90;;;;;;;;;;4901359;29;20035;-78
2022/06/07 16:34:59;;;;;;;6.45;1.30;;;;;;;;;;4899322;29;20024;-78
2022/06/07 16:37:26;;;;;;;3.50;0.93;;;;;;;;;;4897717;29;20478;-78
2022/06/07 16:39:52;;;;;;;3.42;0.80;;;;;;;;;;4901528;29;20040;-78
2022/06/07 16:42:18;;;;;;;2.70;0.90;;;;;;;;;;4900684;29;20025;-78
2022/06/07 16:44:45;;;;;;;5.80;1.13;;;;;;;;;;4900977;29;20132;-79
2022/06/07 16:47:14;;;;;;;4.15;1.00;;;;;;;;;;4900782;29;20032;-78
2022/06/07 16:49:40;;;;;;;3.40;1.00;;;;;;;;;;4896348;29;20441;-79
2022/06/07 16:52:07;;;;;;;6.72;0.80;;;;;;;;;;4900665;29;20035;-78
2022/06/07 16:54:33;;;;;;;2.75;0.70;;;;;;;;;;4901039;29;20033;-78
2022/06/07 16:57:01;;;;;;;6.20;0.95;;;;;;;;;;4914949;29;20379;-79
2022/06/07 16:59:28;;;;;;;3.65;1.08;;;;;;;;;;4900498;29;20039;-79
2022/06/07 17:01:58;;;;;;;3.35;1.00;;;;;;;;;;4898456;29;20389;-79
2022/06/07 17:04:24;;;;;;;3.33;0.98;;;;;;;;;;4896554;29;20055;-78
2022/06/07 17:06:51;;;;;;;7.75;0.85;;;;;;;;;;4901378;29;20031;-79
2022/06/07 17:09:18;;;;;;;4.85;1.30;;;;;;;;;;4900744;29;20025;-79
2022/06/07 17:11:44;;;;;;;8.70;1.10;;;;;;;;;;4900330;29;20025;-79
2022/06/07 17:14:12;;;;;;;1.83;0.95;;;;;;;;;;4914878;29;20429;-78
2022/06/07 17:16:39;;;;;;;4.10;1.05;;;;;;;;;;4896132;29;20017;-79
2022/06/07 17:19:06;;;;;;;6.25;1.30;;;;;;;;;;4900513;29;20095;-78
2022/06/07 17:21:33;;;;;;;5.13;1.20;;;;;;;;;;4900171;29;20028;-79
2022/06/07 17:24:00;;;;;;;4.93;0.80;;;;;;;;;;4900518;29;20024;-79
2022/06/07 17:26:26;;;;;;;3.40;1.15;;;;;;;;;;4900066;29;20024;-79
2022/06/07 17:28:53;;;;;;;5.05;0.90;;;;;;;;;;4897905;29;20033;-79
2022/06/07 17:31:19;;;;;;;4.38;0.80;;;;;;;;;;4897976;29;20032;-78
2022/06/07 17:33:46;;;;;;;5.85;1.08;;;;;;;;;;4900620;29;20034;-79
2022/06/07 17:36:13;;;;;;;3.78;1.33;;;;;;;;;;4900213;29;20025;-78
2022/06/07 17:38:40;;;;;;;1.98;1.08;;;;;;;;;;4899792;29;20051;-78
2022/06/07 17:41:06;;;;;;;6.25;2.00;;;;;;;;;;4899722;29;20024;-78
2022/06/07 17:43:34;;;;;;;3.08;1.05;;;;;;;;;;4895916;29;20080;-78
2022/06/07 17:46:00;;;;;;;5.10;1.00;;;;;;;;;;4900274;29;20029;-79
2022/06/07 17:48:26;;;;;;;3.60;0.90;;;;;;;;;;4900100;29;20032;-78
2022/06/07 17:50:53;;;;;;;4.88;1.13;;;;;;;;;;4914446;29;20401;-78
2022/06/07 17:53:21;;;;;;;3.13;1.00;;;;;;;;;;4899980;29;20036;-78
2022/06/07 17:55:51;;;;;;;4.97;0.90;;;;;;;;;;4896984;29;20035;-78
2022/06/07 17:58:17;;;;;;;3.63;1.20;;;;;;;;;;4898015;29;20033;-78
2022/06/07 18:00:44;;;;;;;4.07;1.10;;;;;;;;;;4900048;29;20046;-78
2022/06/07 18:03:12;;;;;;;4.07;1.08;;;;;;;;;;4914735;29;20035;-78
2022/06/07 18:05:39;;;;;;;4.43;1.17;;;;;;;;;;4899682;29;20037;-79
2022/06/07 18:08:05;;;;;;;2.80;0.93;;;;;;;;;;4899189;29;20512;-78
2022/06/07 18:10:32;;;;;;;6.05;1.10;;;;;;;;;;4896337;29;20034;-78
2022/06/07 18:12:59;;;;;;;4.95;1.50;;;;;;;;;;4899369;29;20033;-78
2022/06/07 18:15:32;;;;;;;7.07;1.45;;;;;;;;;;4899274;29;20028;-79
2022/06/07 18:17:59;;;;;;;4.68;1.55;;;;;;;;;;4899650;29;20471;-79
2022/06/07 18:20:26;;;;;;;5.25;1.30;;;;;;;;;;4899720;29;20031;-78
2022/06/07 18:22:53;;;;;;;5.13;1.10;;;;;;;;;;4897458;29;20031;-78
2022/06/07 18:25:28;;;;;;;4.07;1.10;;;;;;;;;;4898005;29;20483;-79
2022/06/07 18:27:55;;;;;;;3.65;1.02;;;;;;;;;;4902816;29;20046;-78
2022/06/07 18:30:22;;;;;;;7.13;0.90;;;;;;;;;;4902926;29;20478;-77
2022/06/07 18:32:49;;;;;;;3.47;1.13;;;;;;;;;;4917555;29;20043;-76
2022/06/07 18:35:23;;;;;;;5.35;1.08;;;;;;;;;;4903105;29;20393;-78
2022/06/07 18:37:50;;;;;;;6.40;1.27;;;;;;;;;;4900608;29;20100;-78
2022/06/07 18:40:17;;;;;;;4.20;1.00;;;;;;;;;;4901164;29;20052;-79
2022/06/07 18:42:43;;;;;;;5.15;1.05;;;;;;;;;;4903446;29;20040;-78
2022/06/07 18:45:15;;;;;;;2.33;0.90;;;;;;;;;;4902574;29;20033;-79
2022/06/07 18:47:41;;;;;;;2.45;0.90;;;;;;;;;;4902883;29;20031;-78
2022/06/07 18:50:09;;;;;;;6.13;1.02;;;;;;;;;;4902430;29;20028;-78
2022/06/07 18:52:37;;;;;;;7.03;1.10;;;;;;;;;;4898578;29;20025;-79
2022/06/07 18:55:04;;;;;;;4.82;1.15;;;;;;;;;;4903736;29;20095;-78
2022/06/07 18:57:30;;;;;;;6.10;1.13;;;;;;;;;;4902751;29;20033;-78
2022/06/07 18:59:56;;;;;;;4.57;1.35;;;;;;;;;;4917005;29;20509;-78
2022/06/07 19:02:23;;;;;;;3.83;0.98;;;;;;;;;;4901721;29;20094;-76
2022/06/07 19:04:49;;;;;;;6.65;1.40;;;;;;;;;;4899893;29;20438;-78
2022/06/07 19:07:16;;;;;;;5.20;0.98;;;;;;;;;;4901237;29;20047;-78
2022/06/07 19:09:52;;;;;;;6.50;1.23;;;;;;;;;;4903190;29;20037;-78
2022/06/07 19:12:19;;;;;;;3.97;0.82;;;;;;;;;;4902472;29;20048;-78
2022/06/07 19:14:46;;;;;;;4.65;1.00;;;;;;;;;;4902031;29;20505;-78
2022/06/07 19:17:13;;;;;;;3.83;1.10;;;;;;;;;;4902266;29;20453;-79
2022/06/07 19:19:39;;;;;;;3.72;1.10;;;;;;;;;;4898258;29;20032;-78
2022/06/07 19:22:07;;;;;;;3.88;1.00;;;;;;;;;;4902594;29;20032;-78
2022/06/07 19:24:33;;;;;;;3.95;1.20;;;;;;;;;;4902367;29;20493;-78
2022/06/07 19:27:02;;;;;;;5.78;1.17;;;;;;;;;;4901882;29;20028;-78
2022/06/07 19:29:28;;;;;;;3.25;1.10;;;;;;;;;;4902113;29;20024;-78
2022/06/07 19:31:55;;;;;;;5.38;1.45;;;;;;;;;;4900177;29;20385;-78
2022/06/07 19:34:22;;;;;;;4.72;1.20;;;;;;;;;;4898576;29;20412;-79
2022/06/07 19:36:50;;;;;;;4.93;1.10;;;;;;;;;;4900434;29;20030;-78
2022/06/07 19:39:17;;;;;;;4.28;1.13;;;;;;;;;;4901130;29;20049;-77
2022/06/07 19:41:46;;;;;;;4.38;1.13;;;;;;;;;;4901620;29;20059;-79
2022/06/07 19:44:13;;;;;;;9.40;1.20;;;;;;;;;;4902087;29;20028;-79
2022/06/07 19:46:39;;;;;;;5.82;1.42;;;;;;;;;;4898147;29;20017;-79
2022/06/07 19:49:06;;;;;;;5.22;1.20;;;;;;;;;;4902448;29;20039;-79
2022/06/07 19:51:33;;;;;;;2.85;0.98;;;;;;;;;;4901597;29;20083;-78
2022/06/07 19:54:03;;;;;;;5.53;1.10;;;;;;;;;;4901767;29;20017;-79
2022/06/07 19:56:31;;;;;;;4.63;0.98;;;;;;;;;;4901393;29;20106;-78
2022/06/07 19:58:58;;;;;;;6.57;1.17;;;;;;;;;;4899788;29;20457;-79
2022/06/07 20:01:24;;;;;;;3.38;1.05;;;;;;;;;;4898745;29;20047;-78
2022/06/07 20:03:50;;;;;;;7.28;1.20;;;;;;;;;;4902285;29;20027;-78
2022/06/07 20:06:17;;;;;;;5.25;1.30;;;;;;;;;;4901117;29;20028;-78
2022/06/07 20:08:43;;;;;;;4.75;1.20;;;;;;;;;;4901449;29;20037;-78
2022/06/07 20:11:10;;;;;;;3.90;1.13;;;;;;;;;;4901104;29;20491;-79
2022/06/07 20:13:36;;;;;;;5.32;1.20;;;;;;;;;;4882556;29;20036;-78
2022/06/07 20:16:03;;;;;;;4.18;1.25;;;;;;;;;;4901901;29;20031;-78
2022/06/07 20:18:29;;;;;;;5.90;1.10;;;;;;;;;;4901196;29;20038;-78
2022/06/07 20:20:56;;;;;;;7.05;1.35;;;;;;;;;;4901270;29;20033;-78
2022/06/07 20:23:23;;;;;;;5.55;1.20;;;;;;;;;;4901226;29;20039;-78
2022/06/07 20:25:50;;;;;;;3.70;1.15;;;;;;;;;;4898284;29;20021;-78
2022/06/07 20:28:18;;;;;;;3.15;1.20;;;;;;;;;;4899461;29;20029;-78
2022/06/07 20:30:45;;;;;;;3.08;0.98;;;;;;;;;;4901511;29;20502;-79
2022/06/07 20:33:11;;;;;;;4.65;1.20;;;;;;;;;;4900935;29;20029;-79
2022/06/07 20:35:39;;;;;;;3.05;1.08;;;;;;;;;;4915412;29;20032;-79
2022/06/07 20:38:06;;;;;;;2.72;0.90;;;;;;;;;;4900221;29;20032;-79
2022/06/07 20:40:37;;;;;;;4.47;1.05;;;;;;;;;;4896781;29;20108;-80
2022/06/07 20:43:04;;;;;;;3.83;1.02;;;;;;;;;;4908042;29;20392;-78
2022/06/07 20:45:31;;;;;;;9.05;1.70;;;;;;;;;;4901103;29;20036;-79
2022/06/07 20:47:57;;;;;;;5.35;1.25;;;;;;;;;;4900578;29;20087;-79
2022/06/07 20:50:24;;;;;;;3.13;1.00;;;;;;;;;;4900318;29;20028;-78
2022/06/07 20:52:51;;;;;;;4.72;1.00;;;;;;;;;;4898049;29;20040;-78
2022/06/07 20:55:18;;;;;;;5.88;1.55;;;;;;;;;;4898682;29;20480;-79
2022/06/07 20:57:44;;;;;;;4.75;1.10;;;;;;;;;;4901033;29;20417;-79
2022/06/07 21:00:13;;;;;;;5.45;1.20;;;;;;;;;;4900370;29;20107;-78